createdAt,value
2023-04-10T00:01:35.889Z,99865.69
2023-04-10T00:04:04.988Z,99874.16
2023-04-10T00:06:33.588Z,99868.09
2023-04-10T00:09:02.972Z,99867.91
2023-04-10T00:11:30.973Z,99860.31
2023-04-10T00:13:58.942Z,99860.59
2023-04-10T00:16:26.860Z,99853.44
2023-04-10T00:18:54.821Z,99854.38
2023-04-10T00:21:22.779Z,99845.28
2023-04-10T00:23:50.826Z,99850.59
2023-04-10T00:26:20.969Z,99848.53
2023-04-10T00:28:48.996Z,99846.84
2023-04-10T00:31:16.969Z,99841.94
2023-04-10T00:33:44.830Z,99839.13
2023-04-10T00:36:12.808Z,99831.50
2023-04-10T00:38:40.746Z,99832.88
2023-04-10T00:41:08.771Z,99829.75
2023-04-10T00:43:38.324Z,99804.19
2023-04-10T00:46:07.002Z,99826.41
2023-04-10T00:48:35.609Z,99812.94
2023-04-10T00:51:04.057Z,99805.97
2023-04-10T00:53:32.064Z,99811.19
2023-04-10T00:56:01.433Z,99809.72
2023-04-10T00:58:29.386Z,99800.34
2023-04-10T01:00:58.746Z,99798.47
2023-04-10T01:03:26.842Z,99804.19
2023-04-10T01:06:05.573Z,99808.66
2023-04-10T01:08:42.573Z,99798.34
2023-04-10T01:11:14.963Z,99793.66
2023-04-10T01:13:52.073Z,99798.34
2023-04-10T01:16:27.744Z,99802.03
2023-04-10T01:19:03.526Z,99799.78
2023-04-10T01:21:35.428Z,99801.41
2023-04-10T01:24:25.447Z,99801.78
2023-04-10T01:27:04.696Z,99807.34
2023-04-10T01:29:37.231Z,99809.44
2023-04-10T01:32:14.195Z,99814.94
2023-04-10T01:34:45.149Z,99790.25
2023-04-10T01:37:17.846Z,99804.78
2023-04-10T01:39:51.011Z,99803.91
2023-04-10T01:42:22.738Z,99806.75
2023-04-10T01:44:54.775Z,99808.94
2023-04-10T01:47:24.739Z,99808.34
2023-04-10T01:49:54.231Z,99805.13
2023-04-10T01:52:24.612Z,99804.78
2023-04-10T01:54:54.397Z,99810.66
2023-04-10T01:57:22.841Z,99807.19
2023-04-10T01:59:52.303Z,99816.56
2023-04-10T02:02:20.399Z,99805.88
2023-04-10T02:04:51.775Z,99810.41
2023-04-10T02:07:26.486Z,99809.16
2023-04-10T02:09:59.971Z,99806.22
2023-04-10T02:12:32.061Z,99797.47
2023-04-10T02:15:04.103Z,99803.41
2023-04-10T02:17:33.053Z,99790.47
2023-04-10T02:20:01.769Z,99807.03
2023-04-10T02:22:30.121Z,99765.66
2023-04-10T02:24:58.690Z,99794.41
2023-04-10T02:27:31.332Z,99788.53
2023-04-10T02:29:59.332Z,99802.91
2023-04-10T02:32:28.640Z,99796.16
2023-04-10T02:34:56.553Z,99802.78
2023-04-10T02:37:24.920Z,99791.31
2023-04-10T02:39:54.716Z,99787.66
2023-04-10T02:42:22.732Z,99787.16
2023-04-10T02:44:50.690Z,99787.47
2023-04-10T02:47:18.896Z,99786.47
2023-04-10T02:49:48.394Z,99780.78
2023-04-10T02:52:16.548Z,99781.00
2023-04-10T02:54:44.689Z,99787.13
2023-04-10T02:57:12.618Z,99779.03
2023-04-10T02:59:40.579Z,99777.44
2023-04-10T03:02:08.765Z,99782.75
2023-04-10T03:04:36.831Z,99775.28
2023-04-10T03:07:06.356Z,99776.34
2023-04-10T03:09:34.486Z,99770.78
2023-04-10T03:12:03.162Z,99781.00
2023-04-10T03:14:31.207Z,99781.16
2023-04-10T03:16:59.183Z,99776.03
2023-04-10T03:19:28.160Z,99773.59
2023-04-10T03:21:56.271Z,99778.50
2023-04-10T03:24:25.857Z,99770.50
2023-04-10T03:26:53.858Z,99777.38
2023-04-10T03:29:21.798Z,99776.91
2023-04-10T03:31:49.766Z,99775.66
2023-04-10T03:34:18.559Z,99775.78
2023-04-10T03:36:46.631Z,99774.59
2023-04-10T03:39:14.570Z,99771.91
2023-04-10T03:41:43.856Z,99777.09
2023-04-10T03:44:11.723Z,99778.16
2023-04-10T03:46:39.707Z,99775.81
2023-04-10T03:49:07.650Z,99784.38
2023-04-10T03:51:35.596Z,99780.72
2023-04-10T03:54:03.724Z,99779.50
2023-04-10T03:56:31.645Z,99787.28
2023-04-10T03:59:00.978Z,99784.41
2023-04-10T04:01:29.071Z,99787.53
2023-04-10T04:03:57.170Z,99783.03
2023-04-10T04:06:25.655Z,99786.84
2023-04-10T04:08:53.670Z,99786.91
2023-04-10T04:11:21.574Z,99779.84
2023-04-10T04:13:49.470Z,99785.88
2023-04-10T04:16:18.763Z,99794.94
2023-04-10T04:18:46.700Z,99805.25
2023-04-10T04:21:14.582Z,99798.00
2023-04-10T04:23:42.553Z,99801.72
2023-04-10T04:26:10.634Z,99797.06
2023-04-10T04:28:38.504Z,99795.31
2023-04-10T04:31:06.916Z,99798.66
2023-04-10T04:33:36.181Z,99796.56
2023-04-10T04:36:04.102Z,99801.34
2023-04-10T04:38:32.082Z,99798.75
2023-04-10T04:41:00.125Z,99795.69
2023-04-10T04:43:28.053Z,99792.22
2023-04-10T04:45:56.741Z,99791.38
2023-04-10T04:48:24.620Z,99796.13
2023-04-10T04:50:53.967Z,99793.94
2023-04-10T04:53:21.877Z,99793.66
2023-04-10T04:55:50.004Z,99764.84
2023-04-10T04:58:18.027Z,99795.19
2023-04-10T05:00:45.941Z,99795.88
2023-04-10T05:03:14.102Z,99804.22
2023-04-10T05:05:42.084Z,99808.16
2023-04-10T05:08:11.784Z,99799.41
2023-04-10T05:10:39.727Z,99798.59
2023-04-10T05:13:07.712Z,99800.50
2023-04-10T05:15:35.774Z,99806.25
2023-04-10T05:18:03.844Z,99812.50
2023-04-10T05:20:31.940Z,99814.53
2023-04-10T05:22:59.854Z,99812.75
2023-04-10T05:25:29.209Z,99816.56
2023-04-10T05:27:57.374Z,99806.34
2023-04-10T05:30:25.562Z,99814.25
2023-04-10T05:32:53.499Z,99810.19
2023-04-10T05:35:21.438Z,99822.00
2023-04-10T05:37:49.442Z,99819.50
2023-04-10T05:40:17.483Z,99826.03
2023-04-10T05:42:47.149Z,99822.53
2023-04-10T05:45:15.381Z,99822.81
2023-04-10T05:47:43.339Z,99816.22
2023-04-10T05:50:11.786Z,99826.00
2023-04-10T05:52:39.733Z,99824.34
2023-04-10T05:55:09.569Z,99816.84
2023-04-10T05:57:37.619Z,99821.09
2023-04-10T06:00:08.324Z,99820.53
2023-04-10T06:02:36.631Z,99821.59
2023-04-10T06:05:05.351Z,99819.47
2023-04-10T06:07:33.463Z,99820.88
2023-04-10T06:10:01.376Z,99822.69
2023-04-10T06:12:29.390Z,99817.19
2023-04-10T06:14:57.323Z,99817.19
2023-04-10T06:17:28.368Z,99793.84
2023-04-10T06:19:56.808Z,99824.09
2023-04-10T06:22:24.715Z,99807.03
2023-04-10T06:24:52.689Z,99817.09
2023-04-10T06:27:20.726Z,99820.03
2023-04-10T06:29:48.729Z,99814.50
2023-04-10T06:32:16.702Z,99704.28
2023-04-10T06:34:46.508Z,99822.25
2023-04-10T06:37:14.359Z,99821.03
2023-04-10T06:39:42.321Z,99823.19
2023-04-10T06:42:10.486Z,99820.94
2023-04-10T06:44:38.435Z,99822.00
2023-04-10T06:47:06.957Z,99817.53
2023-04-10T06:49:35.163Z,99827.59
2023-04-10T06:52:04.527Z,99826.94
2023-04-10T06:54:32.582Z,99829.75
2023-04-10T06:57:00.513Z,99829.22
2023-04-10T06:59:29.276Z,99828.84
2023-04-10T07:01:57.301Z,99832.34
2023-04-10T07:04:25.383Z,99820.03
2023-04-10T07:06:53.314Z,99831.69
2023-04-10T07:09:22.651Z,99834.84
2023-04-10T07:11:50.835Z,99830.97
2023-04-10T07:14:18.813Z,99826.00
2023-04-10T07:16:46.830Z,99830.88
2023-04-10T07:19:14.849Z,99828.88
2023-04-10T07:21:42.845Z,99834.19
2023-04-10T07:24:10.795Z,99825.13
2023-04-10T07:26:40.109Z,99830.63
2023-04-10T07:29:09.397Z,99835.22
2023-04-10T07:31:37.454Z,99831.50
2023-04-10T07:34:05.508Z,99829.09
2023-04-10T07:36:33.574Z,99816.88
2023-04-10T07:39:01.537Z,99832.06
2023-04-10T07:41:29.568Z,99830.81
2023-04-10T07:43:58.829Z,99836.28
2023-04-10T07:46:27.578Z,99832.81
2023-04-10T07:48:56.497Z,99832.34
2023-04-10T07:51:24.928Z,99807.13
2023-04-10T07:53:52.811Z,99822.78
2023-04-10T07:56:21.826Z,99822.34
2023-04-10T07:58:50.286Z,99821.56
2023-04-10T08:01:19.573Z,99817.97
2023-04-10T08:03:48.321Z,99793.75
2023-04-10T08:06:16.545Z,99809.06
2023-04-10T08:08:44.490Z,99807.69
2023-04-10T08:11:24.723Z,99805.50
2023-04-10T08:13:52.983Z,99799.72
2023-04-10T08:16:25.086Z,99779.88
2023-04-10T08:18:53.610Z,99793.06
2023-04-10T08:21:23.016Z,99797.94
2023-04-10T08:23:52.162Z,99796.72
2023-04-10T08:26:21.329Z,99794.56
2023-04-10T08:28:51.055Z,99797.88
2023-04-10T08:31:19.281Z,99794.47
2023-04-10T08:33:49.028Z,99790.53
2023-04-10T08:36:19.774Z,99787.81
2023-04-10T08:38:49.275Z,99781.81
2023-04-10T08:41:18.565Z,99786.59
2023-04-10T08:43:47.358Z,99783.19
2023-04-10T08:46:16.103Z,99782.81
2023-04-10T08:48:53.978Z,99779.69
2023-04-10T08:51:26.409Z,99785.56
2023-04-10T08:53:59.600Z,99782.94
2023-04-10T08:56:28.108Z,99775.63
2023-04-10T08:58:56.468Z,99773.94
2023-04-10T09:01:26.175Z,99766.03
2023-04-10T09:03:56.590Z,99761.81
2023-04-10T09:06:24.808Z,99765.09
2023-04-10T09:08:52.815Z,99772.56
2023-04-10T09:11:20.809Z,99760.50
2023-04-10T09:13:48.744Z,99742.31
2023-04-10T09:16:16.764Z,99760.88
2023-04-10T09:18:46.826Z,99754.34
2023-04-10T09:21:18.042Z,99758.78
2023-04-10T09:23:47.304Z,99751.97
2023-04-10T09:26:29.069Z,99732.91
2023-04-10T09:28:58.919Z,99746.69
2023-04-10T09:31:34.898Z,99752.59
2023-04-10T09:34:13.315Z,99748.41
2023-04-10T09:36:43.052Z,99752.50
2023-04-10T09:39:12.403Z,99756.13
2023-04-10T09:41:58.755Z,99743.75
2023-04-10T09:44:31.409Z,99751.69
2023-04-10T09:46:59.644Z,99749.94
2023-04-10T09:49:27.765Z,99752.78
2023-04-10T09:51:57.498Z,99750.34
2023-04-10T09:54:38.219Z,99752.31
2023-04-10T09:57:08.326Z,99750.25
2023-04-10T09:59:41.147Z,99749.03
2023-04-10T10:02:10.649Z,99748.47
2023-04-10T10:04:40.623Z,99744.59
2023-04-10T10:07:10.693Z,99751.22
2023-04-10T10:09:39.097Z,99745.81
2023-04-10T10:12:08.622Z,99744.06
2023-04-10T10:14:40.541Z,99741.22
2023-04-10T10:17:12.753Z,99746.38
2023-04-10T10:19:46.608Z,99739.38
2023-04-10T10:22:16.355Z,99736.19
2023-04-10T10:24:47.778Z,99734.09
2023-04-10T10:27:18.356Z,99736.31
2023-04-10T10:29:49.672Z,99738.13
2023-04-10T10:32:19.062Z,99736.88
2023-04-10T10:34:47.406Z,99733.84
2023-04-10T10:37:18.157Z,99735.19
2023-04-10T10:39:54.124Z,99736.84
2023-04-10T10:42:27.834Z,99728.56
2023-04-10T10:45:03.679Z,99734.66
2023-04-10T10:47:33.966Z,99723.00
2023-04-10T10:50:03.638Z,99727.97
2023-04-10T10:52:44.813Z,99714.03
2023-04-10T10:55:37.204Z,99712.75
2023-04-10T10:58:07.431Z,99708.09
2023-04-10T11:01:09.975Z,99710.47
2023-04-10T11:03:39.170Z,99687.06
2023-04-10T11:06:09.549Z,99709.44
2023-04-10T11:08:43.452Z,99708.72
2023-04-10T11:11:15.836Z,99704.00
2023-04-10T11:14:18.197Z,99700.31
2023-04-10T11:16:48.617Z,99710.72
2023-04-10T11:19:22.777Z,99703.53
2023-04-10T11:22:08.263Z,99710.72
2023-04-10T11:25:00.785Z,99707.16
2023-04-10T11:27:49.769Z,99709.47
2023-04-10T11:30:30.970Z,99714.16
2023-04-10T11:33:00.416Z,99709.97
2023-04-10T11:35:31.444Z,99713.16
2023-04-10T11:38:19.272Z,99711.81
2023-04-10T11:41:04.294Z,99712.94
2023-04-10T11:43:33.786Z,99721.34
2023-04-10T11:46:07.540Z,99721.38
2023-04-10T11:48:37.039Z,99715.25
2023-04-10T11:51:09.437Z,99711.13
2023-04-10T11:53:37.437Z,99714.69
2023-04-10T11:56:08.775Z,99709.19
2023-04-10T11:58:37.102Z,99703.25
2023-04-10T12:01:06.033Z,99696.19
2023-04-10T12:03:38.930Z,99695.38
2023-04-10T12:06:10.475Z,99698.13
2023-04-10T12:08:40.527Z,99683.75
2023-04-10T12:11:11.323Z,99647.84
2023-04-10T12:13:39.823Z,99679.88
2023-04-10T12:16:10.420Z,99687.66
2023-04-10T12:18:38.802Z,99680.44
2023-04-10T12:21:08.525Z,99675.47
2023-04-10T12:23:39.127Z,99674.63
2023-04-10T12:26:11.160Z,99669.44
2023-04-10T12:28:41.102Z,99667.31
2023-04-10T12:31:10.143Z,99664.47
2023-04-10T12:33:38.333Z,99653.13
2023-04-10T12:36:06.784Z,99653.06
2023-04-10T12:38:42.004Z,99657.63
2023-04-10T12:41:13.304Z,99635.16
2023-04-10T12:43:42.970Z,99638.47
2023-04-10T12:46:11.841Z,99641.94
2023-04-10T12:48:39.769Z,99638.53
2023-04-10T12:51:08.219Z,99632.72
2023-04-10T12:53:44.772Z,99633.88
2023-04-10T12:56:14.807Z,99626.41
2023-04-10T12:58:43.761Z,99625.84
2023-04-10T13:01:11.772Z,99624.94
2023-04-10T13:03:40.119Z,99625.69
2023-04-10T13:06:09.191Z,99613.72
2023-04-10T13:08:38.354Z,99616.72
2023-04-10T13:11:07.294Z,99617.63
2023-04-10T13:13:36.881Z,99591.09
2023-04-10T13:16:05.005Z,99609.28
2023-04-10T13:18:32.968Z,99605.84
2023-04-10T13:21:00.966Z,99604.63
2023-04-10T13:23:28.963Z,99599.28
2023-04-10T13:25:59.058Z,99600.09
2023-04-10T13:28:26.928Z,99599.66
2023-04-10T13:30:56.532Z,99602.97
2023-04-10T13:33:25.011Z,99595.06
2023-04-10T13:35:53.004Z,99590.41
2023-04-10T13:38:21.484Z,99586.63
2023-04-10T13:40:49.449Z,99576.81
2023-04-10T13:43:17.400Z,99589.66
2023-04-10T13:45:45.295Z,99580.78
2023-04-10T13:48:17.599Z,99578.97
2023-04-10T13:50:46.836Z,99585.22
2023-04-10T13:53:14.832Z,99572.88
2023-04-10T13:55:43.873Z,99567.84
2023-04-10T13:58:13.376Z,99567.63
2023-04-10T14:00:41.568Z,99563.84
2023-04-10T14:03:12.267Z,99568.22
2023-04-10T14:05:41.686Z,99568.59
2023-04-10T14:08:11.759Z,99568.97
2023-04-10T14:10:40.624Z,99562.81
2023-04-10T14:13:09.164Z,99562.56
2023-04-10T14:15:37.115Z,99555.72
2023-04-10T14:18:05.101Z,99554.03
2023-04-10T14:20:33.842Z,99552.31
2023-04-10T14:23:03.327Z,99551.91
2023-04-10T14:25:31.257Z,99549.47
2023-04-10T14:27:59.414Z,99549.25
2023-04-10T14:30:30.772Z,99543.22
2023-04-10T14:32:59.073Z,99542.88
2023-04-10T14:35:27.354Z,99542.53
2023-04-10T14:37:55.689Z,99545.28
2023-04-10T14:40:26.740Z,99540.13
2023-04-10T14:42:54.739Z,99541.66
2023-04-10T14:45:22.780Z,99545.16
2023-04-10T14:47:50.835Z,99547.28
2023-04-10T14:50:18.849Z,99543.34
2023-04-10T14:52:46.845Z,99542.72
2023-04-10T14:55:14.758Z,99541.56
2023-04-10T14:57:43.978Z,99544.75
2023-04-10T15:00:13.046Z,99533.63
2023-04-10T15:02:41.048Z,99547.09
2023-04-10T15:05:09.254Z,99538.38
2023-04-10T15:07:37.182Z,99542.84
2023-04-10T15:10:05.768Z,99547.75
2023-04-10T15:12:33.735Z,99546.69
2023-04-10T15:15:03.075Z,99550.25
2023-04-10T15:17:31.148Z,99553.84
2023-04-10T15:19:59.114Z,99548.03
2023-04-10T15:22:27.246Z,99546.78
2023-04-10T15:24:55.303Z,99544.50
2023-04-10T15:27:23.230Z,99537.78
2023-04-10T15:29:51.495Z,99535.31
2023-04-10T15:32:20.879Z,99536.41
2023-04-10T15:34:48.828Z,99539.16
2023-04-10T15:37:16.780Z,99541.09
2023-04-10T15:39:44.737Z,99544.69
2023-04-10T15:42:12.650Z,99517.78
2023-04-10T15:44:40.596Z,99547.75
2023-04-10T15:47:08.526Z,99548.88
2023-04-10T15:49:38.850Z,99546.09
2023-04-10T15:52:07.505Z,99549.13
2023-04-10T15:54:35.735Z,99552.13
2023-04-10T15:57:04.270Z,99549.13
2023-04-10T15:59:33.707Z,99544.41
2023-04-10T16:02:01.870Z,99541.63
2023-04-10T16:04:30.198Z,99541.25
2023-04-10T16:06:59.543Z,99537.69
2023-04-10T16:09:27.604Z,99535.78
2023-04-10T16:11:56.320Z,99537.81
2023-04-10T16:14:24.298Z,99516.22
2023-04-10T16:16:52.311Z,99512.09
2023-04-10T16:19:20.283Z,99510.84
2023-04-10T16:21:48.252Z,99514.25
2023-04-10T16:24:17.625Z,99499.22
2023-04-10T16:26:45.610Z,99510.78
2023-04-10T16:29:13.537Z,99515.06
2023-04-10T16:31:41.568Z,99518.66
2023-04-10T16:34:09.571Z,99514.84
2023-04-10T16:36:37.455Z,99502.72
2023-04-10T16:39:05.787Z,99522.00
2023-04-10T16:41:35.232Z,99516.78
2023-04-10T16:44:03.309Z,99515.41
2023-04-10T16:46:33.188Z,99510.97
2023-04-10T16:49:01.642Z,99512.16
2023-04-10T16:51:29.683Z,99514.13
2023-04-10T16:53:57.616Z,99522.13
2023-04-10T16:56:25.669Z,99515.66
2023-04-10T16:58:55.128Z,99510.16
2023-04-10T17:01:26.139Z,99502.00
2023-04-10T17:03:55.464Z,99499.38
2023-04-10T17:06:23.559Z,99499.50
2023-04-10T17:08:51.598Z,99505.75
2023-04-10T17:11:19.605Z,99508.91
2023-04-10T17:13:47.708Z,99513.16
2023-04-10T17:16:17.114Z,99529.53
2023-04-10T17:18:45.490Z,99549.13
2023-04-10T17:21:14.109Z,99566.47
2023-04-10T17:23:42.246Z,99566.81
2023-04-10T17:26:14.491Z,99569.94
2023-04-10T17:28:44.407Z,99521.28
2023-04-10T17:31:12.425Z,99536.28
2023-04-10T17:33:42.875Z,99552.00
2023-04-10T17:36:12.346Z,99548.59
2023-04-10T17:38:41.088Z,99547.09
2023-04-10T17:41:09.970Z,99536.13
2023-04-10T17:43:37.903Z,99538.28
2023-04-10T17:46:06.158Z,99529.78
2023-04-10T17:48:34.486Z,99522.97
2023-04-10T17:51:07.439Z,99509.00
2023-04-10T17:53:36.006Z,99528.63
2023-04-10T17:56:03.934Z,99525.69
2023-04-10T17:58:31.953Z,99521.97
2023-04-10T18:01:00.079Z,99534.63
2023-04-10T18:03:28.131Z,99528.31
2023-04-10T18:05:56.084Z,99524.44
2023-04-10T18:08:25.407Z,99520.97
2023-04-10T18:10:53.504Z,99518.16
2023-04-10T18:13:21.466Z,99514.56
2023-04-10T18:15:49.376Z,99517.47
2023-04-10T18:18:17.437Z,99529.84
2023-04-10T18:20:45.396Z,99533.94
2023-04-10T18:23:13.304Z,99545.09
2023-04-10T18:25:42.823Z,99537.16
2023-04-10T18:28:14.860Z,99536.66
2023-04-10T18:30:44.006Z,99531.31
2023-04-10T18:33:11.999Z,99532.00
2023-04-10T18:35:40.047Z,99536.34
2023-04-10T18:38:08.159Z,99533.81
2023-04-10T18:40:36.805Z,99531.44
2023-04-10T18:43:06.574Z,99528.06
2023-04-10T18:45:35.046Z,99538.75
2023-04-10T18:48:03.206Z,99537.78
2023-04-10T18:50:34.851Z,99529.66
2023-04-10T18:53:02.827Z,99523.34
2023-04-10T18:55:30.768Z,99529.13
2023-04-10T18:57:58.975Z,99524.41
2023-04-10T19:00:28.635Z,99523.44
2023-04-10T19:02:56.972Z,99530.28
2023-04-10T19:05:25.034Z,99520.25
2023-04-10T19:08:02.808Z,99482.03
2023-04-10T19:10:31.454Z,99528.81
2023-04-10T19:12:59.379Z,99516.06
2023-04-10T19:15:28.709Z,99517.50
2023-04-10T19:17:56.808Z,99498.53
2023-04-10T19:20:49.839Z,99515.16
2023-04-10T19:23:13.182Z,99517.06
2023-04-10T19:25:41.225Z,99515.84
2023-04-10T19:28:09.211Z,99529.19
2023-04-10T19:30:38.694Z,99518.56
2023-04-10T19:33:07.099Z,99495.94
2023-04-10T19:35:35.062Z,99519.56
2023-04-10T19:38:03.067Z,99514.94
2023-04-10T19:40:31.403Z,99513.28
2023-04-10T19:43:01.899Z,99519.47
2023-04-10T19:45:32.228Z,99514.59
2023-04-10T19:48:01.716Z,99510.34
2023-04-10T19:50:30.862Z,99514.13
2023-04-10T19:52:59.569Z,99509.38
2023-04-10T19:55:28.281Z,99507.50
2023-04-10T19:57:56.189Z,99512.94
2023-04-10T20:00:24.155Z,99510.94
2023-04-10T20:02:52.300Z,99473.56
2023-04-10T20:05:22.437Z,99512.69
2023-04-10T20:07:50.624Z,99486.97
2023-04-10T20:10:18.580Z,99503.81
2023-04-10T20:12:46.586Z,99506.97
2023-04-10T20:15:14.548Z,99504.91
2023-04-10T20:17:42.508Z,99498.69
2023-04-10T20:20:12.752Z,99499.44
2023-04-10T20:22:42.015Z,99489.25
2023-04-10T20:25:10.723Z,99485.78
2023-04-10T20:27:38.709Z,99477.97
2023-04-10T20:30:08.041Z,99483.25
2023-04-10T20:32:37.014Z,99476.53
2023-04-10T20:35:05.613Z,99482.53
2023-04-10T20:37:33.560Z,99450.84
2023-04-10T20:40:03.270Z,99472.59
2023-04-10T20:42:31.245Z,99471.63
2023-04-10T20:44:59.114Z,99465.59
2023-04-10T20:47:27.099Z,99468.78
2023-04-10T20:49:55.034Z,99460.00
2023-04-10T20:52:23.075Z,99462.50
2023-04-10T20:54:50.981Z,99460.50
2023-04-10T20:57:20.375Z,99462.63
2023-04-10T20:59:48.349Z,99457.50
2023-04-10T21:02:18.130Z,99462.59
2023-04-10T21:04:46.121Z,99453.50
2023-04-10T21:07:14.114Z,99462.50
2023-04-10T21:09:42.111Z,99467.97
2023-04-10T21:12:10.078Z,99472.47
2023-04-10T21:14:39.500Z,99419.28
2023-04-10T21:17:07.434Z,99438.13
2023-04-10T21:19:35.361Z,99459.28
2023-04-10T21:22:03.356Z,99456.69
2023-04-10T21:24:31.329Z,99455.47
2023-04-10T21:26:59.246Z,99459.72
2023-04-10T21:29:27.114Z,99459.25
2023-04-10T21:31:56.496Z,99460.44
2023-04-10T21:34:25.239Z,99464.00
2023-04-10T21:36:53.154Z,99470.63
2023-04-10T21:39:21.068Z,99475.59
2023-04-10T21:41:49.013Z,99476.41
2023-04-10T21:44:17.058Z,99473.94
2023-04-10T21:46:44.976Z,99469.25
2023-04-10T21:49:14.321Z,99475.50
2023-04-10T21:51:42.253Z,99472.09
2023-04-10T21:54:10.181Z,99470.00
2023-04-10T21:56:38.866Z,99453.44
2023-04-10T21:59:06.896Z,99468.47
2023-04-10T22:01:35.240Z,99446.59
2023-04-10T22:04:03.429Z,99470.13
2023-04-10T22:06:32.818Z,99458.50
2023-04-10T22:09:00.799Z,99442.25
2023-04-10T22:11:28.681Z,99445.25
2023-04-10T22:13:58.245Z,99447.16
2023-04-10T22:16:30.829Z,99430.53
2023-04-10T22:18:58.831Z,99443.34
2023-04-10T22:21:27.503Z,99436.56
2023-04-10T22:23:56.763Z,99426.59
2023-04-10T22:26:24.709Z,99438.97
2023-04-10T22:28:52.906Z,99427.94
2023-04-10T22:31:21.500Z,99429.13
2023-04-10T22:33:50.266Z,99418.31
2023-04-10T22:36:18.140Z,99421.78
2023-04-10T22:38:46.057Z,99420.34
2023-04-10T22:41:15.392Z,99411.72
2023-04-10T22:43:43.313Z,99419.19
2023-04-10T22:46:11.324Z,99413.84
2023-04-10T22:48:39.432Z,99416.13
2023-04-10T22:51:11.587Z,99395.69
2023-04-10T22:53:39.525Z,99413.03
2023-04-10T22:56:08.548Z,99412.06
2023-04-10T22:58:39.241Z,99415.16
2023-04-10T23:01:08.398Z,99413.38
2023-04-10T23:03:36.308Z,99403.78
2023-04-10T23:06:04.472Z,99403.19
2023-04-10T23:08:32.471Z,99397.03
2023-04-10T23:11:00.489Z,99391.44
2023-04-10T23:13:28.560Z,99393.19
2023-04-10T23:15:57.935Z,99397.84
2023-04-10T23:18:25.923Z,99396.41
2023-04-10T23:20:53.926Z,99390.72
2023-04-10T23:23:21.867Z,99377.28
2023-04-10T23:25:58.237Z,99388.41
2023-04-10T23:28:26.331Z,99385.19
2023-04-10T23:30:54.645Z,99382.34
2023-04-10T23:33:23.955Z,99379.97
2023-04-10T23:35:51.962Z,99378.81
2023-04-10T23:38:21.233Z,99373.59
2023-04-10T23:40:49.302Z,99371.34
2023-04-10T23:43:17.236Z,99359.09
2023-04-10T23:45:45.175Z,99360.09
2023-04-10T23:48:13.128Z,99354.91
2023-04-10T23:50:42.551Z,99346.44
2023-04-10T23:53:10.885Z,99349.03
2023-04-10T23:55:40.255Z,99341.81
2023-04-10T23:58:08.236Z,99340.34
